Terminal Aerodrome Forecast
Issued by NWS

Home | Current Version | Previous Version | Text Only | Print | Product List | Glossary On
Versions: 1 2 3 4 5 6 7 8 9 10 11 12 13 14 15
937
FTUS43 KPAH 210520
TAFCGI
TAF
KCGI 210520Z 2106/2206 19005KT P6SM SKC
     FM210900 19003KT 4SM BR BCFG SKC
     FM211500 19008KT P6SM FEW035=

USA.gov is the U.S. government's official web portal to all federal, state and local government web resources and services.